METAR Data
IDs: Format: Raw Decoded Include TAF

Data at: 1041 UTC 28 Sep 2021

EHGR 281025Z AUTO 20007KT 140V230 9999 FEW220 18/11 Q1022 BLU NOSIG